sensor_id;sensor_type;location;lat;lon;timestamp;P1;durP1;ratioP1;P2;durP2;ratioP2
43070;SDS011;36278;47.952;21.714;2022-09-12T00:02:13;5.40;;;2.57;;
43070;SDS011;36278;47.952;21.714;2022-09-12T00:04:38;5.27;;;2.80;;
43070;SDS011;36278;47.952;21.714;2022-09-12T00:07:04;5.10;;;2.87;;
43070;SDS011;36278;47.952;21.714;2022-09-12T00:09:29;3.93;;;3.00;;
43070;SDS011;36278;47.952;21.714;2022-09-12T00:11:55;3.77;;;2.77;;
43070;SDS011;36278;47.952;21.714;2022-09-12T00:14:20;4.53;;;3.20;;
43070;SDS011;36278;47.952;21.714;2022-09-12T00:16:46;4.93;;;3.30;;
43070;SDS011;36278;47.952;21.714;2022-09-12T00:19:11;4.47;;;2.93;;
43070;SDS011;36278;47.952;21.714;2022-09-12T00:21:38;5.67;;;2.87;;
43070;SDS011;36278;47.952;21.714;2022-09-12T00:24:04;5.20;;;2.80;;
43070;SDS011;36278;47.952;21.714;2022-09-12T00:26:30;5.53;;;3.37;;
43070;SDS011;36278;47.952;21.714;2022-09-12T00:28:56;8.20;;;3.27;;
43070;SDS011;36278;47.952;21.714;2022-09-12T00:31:22;7.57;;;2.90;;
43070;SDS011;36278;47.952;21.714;2022-09-12T00:33:50;6.90;;;3.13;;
43070;SDS011;36278;47.952;21.714;2022-09-12T00:36:16;4.80;;;3.33;;
43070;SDS011;36278;47.952;21.714;2022-09-12T00:38:45;4.80;;;3.57;;
43070;SDS011;36278;47.952;21.714;2022-09-12T00:41:19;6.43;;;3.37;;
43070;SDS011;36278;47.952;21.714;2022-09-12T00:43:51;4.43;;;3.27;;
43070;SDS011;36278;47.952;21.714;2022-09-12T00:48:51;4.27;;;3.43;;
43070;SDS011;36278;47.952;21.714;2022-09-12T00:51:22;6.13;;;3.03;;
43070;SDS011;36278;47.952;21.714;2022-09-12T00:53:49;5.43;;;3.57;;
43070;SDS011;36278;47.952;21.714;2022-09-12T00:56:17;6.83;;;3.53;;
43070;SDS011;36278;47.952;21.714;2022-09-12T00:58:46;4.80;;;3.40;;
43070;SDS011;36278;47.952;21.714;2022-09-12T01:01:18;5.27;;;3.93;;
43070;SDS011;36278;47.952;21.714;2022-09-12T01:03:43;6.60;;;3.60;;
43070;SDS011;36278;47.952;21.714;2022-09-12T01:06:20;5.27;;;3.47;;
43070;SDS011;36278;47.952;21.714;2022-09-12T01:08:51;5.77;;;3.40;;
43070;SDS011;36278;47.952;21.714;2022-09-12T01:11:18;7.27;;;4.33;;
43070;SDS011;36278;47.952;21.714;2022-09-12T01:13:45;7.57;;;4.00;;
43070;SDS011;36278;47.952;21.714;2022-09-12T01:16:10;6.33;;;4.17;;
43070;SDS011;36278;47.952;21.714;2022-09-12T01:21:35;7.07;;;3.73;;
43070;SDS011;36278;47.952;21.714;2022-09-12T01:33:13;4.70;;;3.57;;
43070;SDS011;36278;47.952;21.714;2022-09-12T01:43:23;6.60;;;3.90;;
43070;SDS011;36278;47.952;21.714;2022-09-12T01:48:29;6.40;;;4.37;;
43070;SDS011;36278;47.952;21.714;2022-09-12T01:51:10;8.23;;;3.77;;
43070;SDS011;36278;47.952;21.714;2022-09-12T01:53:47;7.00;;;4.37;;
43070;SDS011;36278;47.952;21.714;2022-09-12T01:56:23;6.07;;;4.07;;
43070;SDS011;36278;47.952;21.714;2022-09-12T01:58:53;8.00;;;4.30;;
43070;SDS011;36278;47.952;21.714;2022-09-12T02:01:26;8.20;;;4.40;;
43070;SDS011;36278;47.952;21.714;2022-09-12T02:09:23;8.27;;;4.60;;
43070;SDS011;36278;47.952;21.714;2022-09-12T02:11:56;6.43;;;4.43;;
43070;SDS011;36278;47.952;21.714;2022-09-12T02:14:25;8.80;;;4.87;;
43070;SDS011;36278;47.952;21.714;2022-09-12T02:16:55;7.67;;;4.23;;
43070;SDS011;36278;47.952;21.714;2022-09-12T02:19:25;6.10;;;4.20;;
43070;SDS011;36278;47.952;21.714;2022-09-12T02:21:57;7.20;;;5.03;;
43070;SDS011;36278;47.952;21.714;2022-09-12T02:24:26;8.67;;;4.80;;
43070;SDS011;36278;47.952;21.714;2022-09-12T02:26:56;7.37;;;4.40;;
43070;SDS011;36278;47.952;21.714;2022-09-12T02:29:27;9.83;;;4.87;;
43070;SDS011;36278;47.952;21.714;2022-09-12T02:34:55;5.67;;;4.20;;
43070;SDS011;36278;47.952;21.714;2022-09-12T02:40:02;5.30;;;4.37;;
43070;SDS011;36278;47.952;21.714;2022-09-12T02:42:28;6.90;;;4.40;;
43070;SDS011;36278;47.952;21.714;2022-09-12T02:44:53;5.43;;;4.10;;
43070;SDS011;36278;47.952;21.714;2022-09-12T02:47:31;10.37;;;4.63;;
43070;SDS011;36278;47.952;21.714;2022-09-12T02:49:58;5.90;;;4.23;;
43070;SDS011;36278;47.952;21.714;2022-09-12T02:52:24;7.00;;;4.47;;
43070;SDS011;36278;47.952;21.714;2022-09-12T02:54:51;6.03;;;4.43;;
43070;SDS011;36278;47.952;21.714;2022-09-12T02:57:19;5.30;;;4.07;;
43070;SDS011;36278;47.952;21.714;2022-09-12T02:59:46;5.07;;;4.43;;
43070;SDS011;36278;47.952;21.714;2022-09-12T03:02:31;6.23;;;4.40;;
43070;SDS011;36278;47.952;21.714;2022-09-12T03:10:29;9.50;;;4.50;;
43070;SDS011;36278;47.952;21.714;2022-09-12T03:15:39;8.37;;;4.60;;
43070;SDS011;36278;47.952;21.714;2022-09-12T03:20:49;8.97;;;4.97;;
43070;SDS011;36278;47.952;21.714;2022-09-12T03:23:24;11.40;;;4.63;;
43070;SDS011;36278;47.952;21.714;2022-09-12T03:25:59;6.47;;;5.03;;
43070;SDS011;36278;47.952;21.714;2022-09-12T03:28:30;8.23;;;5.33;;
43070;SDS011;36278;47.952;21.714;2022-09-12T03:30:58;8.10;;;5.40;;
43070;SDS011;36278;47.952;21.714;2022-09-12T03:33:24;9.67;;;4.87;;
43070;SDS011;36278;47.952;21.714;2022-09-12T03:35:51;9.87;;;5.70;;
43070;SDS011;36278;47.952;21.714;2022-09-12T03:38:18;8.20;;;4.67;;
43070;SDS011;36278;47.952;21.714;2022-09-12T03:40:44;6.30;;;4.60;;
43070;SDS011;36278;47.952;21.714;2022-09-12T03:43:10;9.50;;;4.60;;
43070;SDS011;36278;47.952;21.714;2022-09-12T03:45:36;9.70;;;4.00;;
43070;SDS011;36278;47.952;21.714;2022-09-12T03:48:02;7.23;;;4.23;;
43070;SDS011;36278;47.952;21.714;2022-09-12T03:50:28;5.97;;;4.27;;
43070;SDS011;36278;47.952;21.714;2022-09-12T03:52:54;5.70;;;4.03;;
43070;SDS011;36278;47.952;21.714;2022-09-12T03:55:20;5.53;;;4.10;;
43070;SDS011;36278;47.952;21.714;2022-09-12T03:57:45;7.27;;;4.00;;
43070;SDS011;36278;47.952;21.714;2022-09-12T04:00:11;6.50;;;4.37;;
43070;SDS011;36278;47.952;21.714;2022-09-12T04:02:36;6.27;;;4.10;;
43070;SDS011;36278;47.952;21.714;2022-09-12T04:05:02;7.43;;;4.20;;
43070;SDS011;36278;47.952;21.714;2022-09-12T04:07:28;7.33;;;3.83;;
43070;SDS011;36278;47.952;21.714;2022-09-12T04:09:54;7.70;;;4.07;;
43070;SDS011;36278;47.952;21.714;2022-09-12T04:12:20;7.30;;;4.23;;
43070;SDS011;36278;47.952;21.714;2022-09-12T04:14:46;8.57;;;4.33;;
43070;SDS011;36278;47.952;21.714;2022-09-12T04:17:11;7.27;;;4.03;;
43070;SDS011;36278;47.952;21.714;2022-09-12T04:19:38;6.83;;;4.33;;
43070;SDS011;36278;47.952;21.714;2022-09-12T04:22:04;8.20;;;4.47;;
43070;SDS011;36278;47.952;21.714;2022-09-12T04:24:29;6.17;;;4.17;;
43070;SDS011;36278;47.952;21.714;2022-09-12T04:26:54;8.00;;;4.47;;
43070;SDS011;36278;47.952;21.714;2022-09-12T04:29:20;6.70;;;4.00;;
43070;SDS011;36278;47.952;21.714;2022-09-12T04:31:46;11.23;;;4.70;;
43070;SDS011;36278;47.952;21.714;2022-09-12T04:34:11;6.87;;;3.90;;
43070;SDS011;36278;47.952;21.714;2022-09-12T04:36:37;5.97;;;4.23;;
43070;SDS011;36278;47.952;21.714;2022-09-12T04:39:04;5.37;;;4.23;;
43070;SDS011;36278;47.952;21.714;2022-09-12T04:41:31;6.30;;;4.47;;
43070;SDS011;36278;47.952;21.714;2022-09-12T04:44:03;6.90;;;4.33;;
43070;SDS011;36278;47.952;21.714;2022-09-12T04:46:38;7.57;;;3.93;;
43070;SDS011;36278;47.952;21.714;2022-09-12T04:49:05;11.87;;;4.10;;
43070;SDS011;36278;47.952;21.714;2022-09-12T04:51:32;6.37;;;4.23;;
43070;SDS011;36278;47.952;21.714;2022-09-12T04:54:00;7.30;;;4.70;;
43070;SDS011;36278;47.952;21.714;2022-09-12T04:56:30;7.50;;;5.70;;
43070;SDS011;36278;47.952;21.714;2022-09-12T04:58:57;11.17;;;5.43;;
43070;SDS011;36278;47.952;21.714;2022-09-12T05:01:24;5.87;;;4.83;;
43070;SDS011;36278;47.952;21.714;2022-09-12T05:03:50;8.50;;;5.10;;
43070;SDS011;36278;47.952;21.714;2022-09-12T05:06:24;8.47;;;4.60;;
43070;SDS011;36278;47.952;21.714;2022-09-12T05:08:51;9.00;;;5.10;;
43070;SDS011;36278;47.952;21.714;2022-09-12T05:11:19;9.53;;;5.40;;
43070;SDS011;36278;47.952;21.714;2022-09-12T05:13:46;10.10;;;5.20;;
43070;SDS011;36278;47.952;21.714;2022-09-12T05:16:12;9.37;;;4.90;;
43070;SDS011;36278;47.952;21.714;2022-09-12T05:18:39;6.43;;;4.80;;
43070;SDS011;36278;47.952;21.714;2022-09-12T05:21:06;10.30;;;5.40;;
43070;SDS011;36278;47.952;21.714;2022-09-12T05:23:34;8.30;;;5.10;;
43070;SDS011;36278;47.952;21.714;2022-09-12T05:26:00;7.03;;;5.53;;
43070;SDS011;36278;47.952;21.714;2022-09-12T05:28:28;9.90;;;5.57;;
43070;SDS011;36278;47.952;21.714;2022-09-12T05:33:29;8.33;;;6.23;;
43070;SDS011;36278;47.952;21.714;2022-09-12T05:35:55;8.20;;;4.27;;
43070;SDS011;36278;47.952;21.714;2022-09-12T05:38:21;7.17;;;5.07;;
43070;SDS011;36278;47.952;21.714;2022-09-12T05:40:48;8.53;;;4.97;;
43070;SDS011;36278;47.952;21.714;2022-09-12T05:43:14;8.13;;;4.30;;
43070;SDS011;36278;47.952;21.714;2022-09-12T05:45:40;5.60;;;3.37;;
43070;SDS011;36278;47.952;21.714;2022-09-12T05:48:06;8.10;;;4.50;;
43070;SDS011;36278;47.952;21.714;2022-09-12T05:50:31;7.13;;;4.73;;
43070;SDS011;36278;47.952;21.714;2022-09-12T05:52:57;8.07;;;3.83;;
43070;SDS011;36278;47.952;21.714;2022-09-12T05:55:23;5.63;;;3.47;;
43070;SDS011;36278;47.952;21.714;2022-09-12T05:57:49;6.90;;;4.30;;
43070;SDS011;36278;47.952;21.714;2022-09-12T06:00:15;5.53;;;3.53;;
43070;SDS011;36278;47.952;21.714;2022-09-12T06:02:41;7.87;;;3.50;;
43070;SDS011;36278;47.952;21.714;2022-09-12T06:05:07;6.93;;;3.43;;
43070;SDS011;36278;47.952;21.714;2022-09-12T06:07:32;7.80;;;3.30;;
43070;SDS011;36278;47.952;21.714;2022-09-12T06:09:59;6.37;;;3.07;;
43070;SDS011;36278;47.952;21.714;2022-09-12T06:12:27;6.83;;;3.07;;
43070;SDS011;36278;47.952;21.714;2022-09-12T06:14:54;7.33;;;2.60;;
43070;SDS011;36278;47.952;21.714;2022-09-12T06:17:19;6.70;;;2.60;;
43070;SDS011;36278;47.952;21.714;2022-09-12T06:19:46;5.43;;;2.53;;
43070;SDS011;36278;47.952;21.714;2022-09-12T06:22:11;6.13;;;2.30;;
43070;SDS011;36278;47.952;21.714;2022-09-12T06:24:38;3.37;;;2.50;;
43070;SDS011;36278;47.952;21.714;2022-09-12T06:27:03;5.30;;;2.30;;
43070;SDS011;36278;47.952;21.714;2022-09-12T06:29:29;7.43;;;2.77;;
43070;SDS011;36278;47.952;21.714;2022-09-12T06:31:56;4.67;;;2.40;;
43070;SDS011;36278;47.952;21.714;2022-09-12T06:34:22;8.43;;;2.90;;
43070;SDS011;36278;47.952;21.714;2022-09-12T06:36:47;4.17;;;2.53;;
43070;SDS011;36278;47.952;21.714;2022-09-12T06:39:14;6.07;;;2.20;;
43070;SDS011;36278;47.952;21.714;2022-09-12T06:41:41;5.73;;;2.40;;
43070;SDS011;36278;47.952;21.714;2022-09-12T06:44:08;3.77;;;2.13;;
43070;SDS011;36278;47.952;21.714;2022-09-12T06:46:37;3.37;;;2.23;;
43070;SDS011;36278;47.952;21.714;2022-09-12T06:49:02;6.80;;;2.50;;
43070;SDS011;36278;47.952;21.714;2022-09-12T06:51:28;4.50;;;2.63;;
43070;SDS011;36278;47.952;21.714;2022-09-12T06:53:54;4.97;;;2.80;;
43070;SDS011;36278;47.952;21.714;2022-09-12T06:56:21;5.57;;;2.77;;
43070;SDS011;36278;47.952;21.714;2022-09-12T06:58:49;5.63;;;2.30;;
43070;SDS011;36278;47.952;21.714;2022-09-12T07:01:33;3.40;;;2.70;;
43070;SDS011;36278;47.952;21.714;2022-09-12T07:06:30;4.13;;;2.70;;
43070;SDS011;36278;47.952;21.714;2022-09-12T07:09:00;3.23;;;2.53;;
43070;SDS011;36278;47.952;21.714;2022-09-12T07:11:29;4.60;;;2.40;;
43070;SDS011;36278;47.952;21.714;2022-09-12T07:13:56;5.67;;;2.63;;
43070;SDS011;36278;47.952;21.714;2022-09-12T07:16:22;5.27;;;2.70;;
43070;SDS011;36278;47.952;21.714;2022-09-12T07:18:55;3.57;;;2.40;;
43070;SDS011;36278;47.952;21.714;2022-09-12T07:21:22;5.07;;;2.67;;
43070;SDS011;36278;47.952;21.714;2022-09-12T07:23:48;4.70;;;3.03;;
43070;SDS011;36278;47.952;21.714;2022-09-12T07:26:14;4.23;;;2.60;;
43070;SDS011;36278;47.952;21.714;2022-09-12T07:28:40;4.97;;;2.70;;
43070;SDS011;36278;47.952;21.714;2022-09-12T07:31:08;4.03;;;2.57;;
43070;SDS011;36278;47.952;21.714;2022-09-12T07:33:35;5.80;;;2.63;;
43070;SDS011;36278;47.952;21.714;2022-09-12T07:36:09;3.00;;;2.20;;
43070;SDS011;36278;47.952;21.714;2022-09-12T07:38:37;5.13;;;2.20;;
43070;SDS011;36278;47.952;21.714;2022-09-12T07:43:58;4.50;;;2.20;;
43070;SDS011;36278;47.952;21.714;2022-09-12T07:46:25;2.83;;;1.80;;
43070;SDS011;36278;47.952;21.714;2022-09-12T07:48:52;3.50;;;2.20;;
43070;SDS011;36278;47.952;21.714;2022-09-12T07:51:19;5.37;;;2.10;;
43070;SDS011;36278;47.952;21.714;2022-09-12T07:53:45;6.10;;;2.07;;
43070;SDS011;36278;47.952;21.714;2022-09-12T07:56:13;4.67;;;2.30;;
43070;SDS011;36278;47.952;21.714;2022-09-12T07:58:39;5.13;;;1.83;;
43070;SDS011;36278;47.952;21.714;2022-09-12T08:01:07;2.30;;;1.93;;
43070;SDS011;36278;47.952;21.714;2022-09-12T08:03:35;6.27;;;3.00;;
43070;SDS011;36278;47.952;21.714;2022-09-12T08:06:01;4.63;;;2.10;;
43070;SDS011;36278;47.952;21.714;2022-09-12T08:08:28;7.00;;;2.73;;
43070;SDS011;36278;47.952;21.714;2022-09-12T08:10:58;4.47;;;2.50;;
43070;SDS011;36278;47.952;21.714;2022-09-12T08:13:25;4.97;;;2.60;;
43070;SDS011;36278;47.952;21.714;2022-09-12T08:16:00;5.00;;;2.65;;
43070;SDS011;36278;47.952;21.714;2022-09-12T08:18:30;4.17;;;2.57;;
43070;SDS011;36278;47.952;21.714;2022-09-12T08:20:59;11.70;;;2.83;;
43070;SDS011;36278;47.952;21.714;2022-09-12T08:23:26;8.30;;;3.35;;
43070;SDS011;36278;47.952;21.714;2022-09-12T08:25:56;5.40;;;3.00;;
43070;SDS011;36278;47.952;21.714;2022-09-12T08:28:23;3.13;;;2.42;;
43070;SDS011;36278;47.952;21.714;2022-09-12T08:30:49;5.43;;;2.80;;
43070;SDS011;36278;47.952;21.714;2022-09-12T08:33:15;3.72;;;2.63;;
43070;SDS011;36278;47.952;21.714;2022-09-12T08:35:41;3.97;;;2.80;;
43070;SDS011;36278;47.952;21.714;2022-09-12T08:38:06;4.47;;;3.05;;
43070;SDS011;36278;47.952;21.714;2022-09-12T08:40:32;5.97;;;3.13;;
43070;SDS011;36278;47.952;21.714;2022-09-12T08:43:25;6.63;;;2.80;;
43070;SDS011;36278;47.952;21.714;2022-09-12T08:46:07;4.95;;;2.67;;
43070;SDS011;36278;47.952;21.714;2022-09-12T08:48:38;6.85;;;2.72;;
43070;SDS011;36278;47.952;21.714;2022-09-12T08:51:06;4.65;;;2.80;;
43070;SDS011;36278;47.952;21.714;2022-09-12T08:56:04;5.72;;;2.85;;
43070;SDS011;36278;47.952;21.714;2022-09-12T08:58:34;5.43;;;2.93;;
43070;SDS011;36278;47.952;21.714;2022-09-12T09:04:15;5.20;;;2.70;;
43070;SDS011;36278;47.952;21.714;2022-09-12T09:07:00;5.30;;;2.70;;
43070;SDS011;36278;47.952;21.714;2022-09-12T09:15:21;5.75;;;2.30;;
43070;SDS011;36278;47.952;21.714;2022-09-12T09:18:02;4.25;;;2.17;;
43070;SDS011;36278;47.952;21.714;2022-09-12T09:20:34;4.17;;;2.10;;
43070;SDS011;36278;47.952;21.714;2022-09-12T09:29:36;2.63;;;1.85;;
43070;SDS011;36278;47.952;21.714;2022-09-12T09:31:39;4.28;;;2.10;;
43070;SDS011;36278;47.952;21.714;2022-09-12T09:34:12;4.80;;;2.33;;
43070;SDS011;36278;47.952;21.714;2022-09-12T09:36:57;7.63;;;2.05;;
43070;SDS011;36278;47.952;21.714;2022-09-12T09:42:49;8.25;;;2.30;;
43070;SDS011;36278;47.952;21.714;2022-09-12T09:45:21;4.15;;;2.30;;
43070;SDS011;36278;47.952;21.714;2022-09-12T09:47:53;2.90;;;2.22;;
43070;SDS011;36278;47.952;21.714;2022-09-12T09:50:23;4.22;;;2.28;;
43070;SDS011;36278;47.952;21.714;2022-09-12T09:52:50;7.18;;;2.35;;
43070;SDS011;36278;47.952;21.714;2022-09-12T09:55:20;3.72;;;2.03;;
43070;SDS011;36278;47.952;21.714;2022-09-12T09:57:50;4.03;;;2.08;;
43070;SDS011;36278;47.952;21.714;2022-09-12T10:05:46;6.25;;;2.03;;
43070;SDS011;36278;47.952;21.714;2022-09-12T10:08:45;4.63;;;2.33;;
43070;SDS011;36278;47.952;21.714;2022-09-12T10:11:25;3.55;;;1.92;;
43070;SDS011;36278;47.952;21.714;2022-09-12T10:13:53;5.80;;;1.95;;
43070;SDS011;36278;47.952;21.714;2022-09-12T10:18:54;2.60;;;1.60;;
43070;SDS011;36278;47.952;21.714;2022-09-12T10:23:50;2.55;;;1.70;;
43070;SDS011;36278;47.952;21.714;2022-09-12T10:26:24;4.30;;;2.10;;
43070;SDS011;36278;47.952;21.714;2022-09-12T10:28:56;2.55;;;1.80;;
43070;SDS011;36278;47.952;21.714;2022-09-12T10:31:26;4.55;;;1.70;;
43070;SDS011;36278;47.952;21.714;2022-09-12T10:34:00;2.47;;;1.73;;
43070;SDS011;36278;47.952;21.714;2022-09-12T10:36:34;3.42;;;2.00;;
43070;SDS011;36278;47.952;21.714;2022-09-12T10:39:01;4.10;;;1.67;;
43070;SDS011;36278;47.952;21.714;2022-09-12T10:41:34;4.47;;;1.83;;
43070;SDS011;36278;47.952;21.714;2022-09-12T10:44:06;6.03;;;2.00;;
43070;SDS011;36278;47.952;21.714;2022-09-12T10:46:34;2.90;;;1.70;;
43070;SDS011;36278;47.952;21.714;2022-09-12T10:51:46;3.25;;;2.08;;
43070;SDS011;36278;47.952;21.714;2022-09-12T10:54:13;4.32;;;1.70;;
43070;SDS011;36278;47.952;21.714;2022-09-12T10:59:36;2.30;;;1.58;;
43070;SDS011;36278;47.952;21.714;2022-09-12T11:08:22;3.03;;;1.50;;
43070;SDS011;36278;47.952;21.714;2022-09-12T11:11:06;3.50;;;1.58;;
43070;SDS011;36278;47.952;21.714;2022-09-12T11:13:59;4.45;;;1.50;;
43070;SDS011;36278;47.952;21.714;2022-09-12T11:25:07;2.63;;;1.60;;
43070;SDS011;36278;47.952;21.714;2022-09-12T11:30:11;4.15;;;1.30;;
43070;SDS011;36278;47.952;21.714;2022-09-12T11:35:25;4.85;;;1.55;;
43070;SDS011;36278;47.952;21.714;2022-09-12T11:38:14;3.10;;;1.70;;
43070;SDS011;36278;47.952;21.714;2022-09-12T11:40:54;4.93;;;1.77;;
43070;SDS011;36278;47.952;21.714;2022-09-12T11:46:53;3.67;;;1.73;;
43070;SDS011;36278;47.952;21.714;2022-09-12T11:51:57;3.72;;;1.38;;
43070;SDS011;36278;47.952;21.714;2022-09-12T11:59:57;2.83;;;1.63;;
43070;SDS011;36278;47.952;21.714;2022-09-12T12:02:32;2.03;;;1.23;;
43070;SDS011;36278;47.952;21.714;2022-09-12T12:07:55;3.95;;;1.33;;
43070;SDS011;36278;47.952;21.714;2022-09-12T12:12:57;4.50;;;1.70;;
43070;SDS011;36278;47.952;21.714;2022-09-12T12:15:26;4.63;;;1.73;;
43070;SDS011;36278;47.952;21.714;2022-09-12T12:18:00;4.57;;;1.30;;
43070;SDS011;36278;47.952;21.714;2022-09-12T12:20:31;3.85;;;1.70;;
43070;SDS011;36278;47.952;21.714;2022-09-12T12:22:57;2.17;;;1.63;;
43070;SDS011;36278;47.952;21.714;2022-09-12T12:25:37;3.13;;;1.75;;
43070;SDS011;36278;47.952;21.714;2022-09-12T12:28:05;2.22;;;1.48;;
43070;SDS011;36278;47.952;21.714;2022-09-12T12:33:01;2.70;;;1.48;;
43070;SDS011;36278;47.952;21.714;2022-09-12T12:38:25;4.68;;;1.33;;
43070;SDS011;36278;47.952;21.714;2022-09-12T12:46:13;2.28;;;1.50;;
43070;SDS011;36278;47.952;21.714;2022-09-12T12:51:32;2.83;;;1.42;;
43070;SDS011;36278;47.952;21.714;2022-09-12T12:54:00;5.28;;;1.60;;
43070;SDS011;36278;47.952;21.714;2022-09-12T12:56:38;1.63;;;1.27;;
43070;SDS011;36278;47.952;21.714;2022-09-12T12:59:14;1.10;;;1.10;;
43070;SDS011;36278;47.952;21.714;2022-09-12T13:01:47;3.20;;;1.52;;
43070;SDS011;36278;47.952;21.714;2022-09-12T13:04:17;1.85;;;1.33;;
43070;SDS011;36278;47.952;21.714;2022-09-12T13:06:46;6.25;;;1.15;;
43070;SDS011;36278;47.952;21.714;2022-09-12T13:12:04;1.33;;;1.15;;
43070;SDS011;36278;47.952;21.714;2022-09-12T13:14:55;1.23;;;1.13;;
43070;SDS011;36278;47.952;21.714;2022-09-12T13:20:25;4.07;;;1.20;;
43070;SDS011;36278;47.952;21.714;2022-09-12T13:22:54;2.97;;;1.52;;
43070;SDS011;36278;47.952;21.714;2022-09-12T13:28:02;1.58;;;1.38;;
43070;SDS011;36278;47.952;21.714;2022-09-12T13:30:35;2.20;;;1.35;;
43070;SDS011;36278;47.952;21.714;2022-09-12T13:41:20;3.17;;;1.48;;
43070;SDS011;36278;47.952;21.714;2022-09-12T13:43:49;1.23;;;1.13;;
43070;SDS011;36278;47.952;21.714;2022-09-12T13:46:18;2.75;;;1.25;;
43070;SDS011;36278;47.952;21.714;2022-09-12T13:48:51;2.60;;;1.40;;
43070;SDS011;36278;47.952;21.714;2022-09-12T13:51:21;1.75;;;1.17;;
43070;SDS011;36278;47.952;21.714;2022-09-12T13:53:50;7.13;;;1.50;;
43070;SDS011;36278;47.952;21.714;2022-09-12T13:56:19;5.82;;;1.60;;
43070;SDS011;36278;47.952;21.714;2022-09-12T14:01:19;4.22;;;1.50;;
43070;SDS011;36278;47.952;21.714;2022-09-12T14:03:51;1.67;;;1.58;;
43070;SDS011;36278;47.952;21.714;2022-09-12T14:09:13;1.92;;;1.27;;
43070;SDS011;36278;47.952;21.714;2022-09-12T14:11:41;4.13;;;1.50;;
43070;SDS011;36278;47.952;21.714;2022-09-12T14:14:15;1.73;;;1.25;;
43070;SDS011;36278;47.952;21.714;2022-09-12T14:16:44;2.55;;;1.30;;
43070;SDS011;36278;47.952;21.714;2022-09-12T14:19:10;1.38;;;1.27;;
43070;SDS011;36278;47.952;21.714;2022-09-12T14:21:36;2.53;;;1.35;;
43070;SDS011;36278;47.952;21.714;2022-09-12T14:24:03;5.80;;;1.90;;
43070;SDS011;36278;47.952;21.714;2022-09-12T14:26:34;9.35;;;2.00;;
43070;SDS011;36278;47.952;21.714;2022-09-12T14:29:03;3.60;;;1.63;;
43070;SDS011;36278;47.952;21.714;2022-09-12T14:31:31;3.17;;;2.00;;
43070;SDS011;36278;47.952;21.714;2022-09-12T14:34:15;2.67;;;1.63;;
43070;SDS011;36278;47.952;21.714;2022-09-12T14:39:16;2.80;;;2.00;;
43070;SDS011;36278;47.952;21.714;2022-09-12T14:41:43;4.82;;;2.00;;
43070;SDS011;36278;47.952;21.714;2022-09-12T14:44:28;3.53;;;1.88;;
43070;SDS011;36278;47.952;21.714;2022-09-12T14:46:55;4.10;;;2.30;;
43070;SDS011;36278;47.952;21.714;2022-09-12T14:49:30;2.80;;;1.80;;
43070;SDS011;36278;47.952;21.714;2022-09-12T14:52:00;7.07;;;4.25;;
43070;SDS011;36278;47.952;21.714;2022-09-12T14:59:25;6.13;;;2.20;;
43070;SDS011;36278;47.952;21.714;2022-09-12T15:04:50;4.88;;;2.15;;
43070;SDS011;36278;47.952;21.714;2022-09-12T15:09:47;3.35;;;2.35;;
43070;SDS011;36278;47.952;21.714;2022-09-12T15:12:13;2.83;;;2.05;;
43070;SDS011;36278;47.952;21.714;2022-09-12T15:14:38;4.28;;;2.13;;
43070;SDS011;36278;47.952;21.714;2022-09-12T15:17:04;8.55;;;2.20;;
43070;SDS011;36278;47.952;21.714;2022-09-12T15:19:29;4.47;;;2.03;;
43070;SDS011;36278;47.952;21.714;2022-09-12T15:21:55;6.43;;;2.05;;
43070;SDS011;36278;47.952;21.714;2022-09-12T15:24:20;7.25;;;1.90;;
43070;SDS011;36278;47.952;21.714;2022-09-12T15:26:46;4.85;;;2.33;;
43070;SDS011;36278;47.952;21.714;2022-09-12T15:29:11;2.47;;;1.88;;
43070;SDS011;36278;47.952;21.714;2022-09-12T15:31:37;3.83;;;2.10;;
43070;SDS011;36278;47.952;21.714;2022-09-12T15:34:04;2.97;;;1.80;;
43070;SDS011;36278;47.952;21.714;2022-09-12T15:36:29;3.00;;;2.03;;
43070;SDS011;36278;47.952;21.714;2022-09-12T15:38:55;6.13;;;2.03;;
43070;SDS011;36278;47.952;21.714;2022-09-12T15:41:22;2.40;;;2.03;;
43070;SDS011;36278;47.952;21.714;2022-09-12T15:43:52;3.13;;;1.88;;
43070;SDS011;36278;47.952;21.714;2022-09-12T15:46:17;4.60;;;1.92;;
43070;SDS011;36278;47.952;21.714;2022-09-12T15:48:44;3.92;;;1.80;;
43070;SDS011;36278;47.952;21.714;2022-09-12T15:51:11;5.15;;;1.73;;
43070;SDS011;36278;47.952;21.714;2022-09-12T15:53:46;4.78;;;1.55;;
43070;SDS011;36278;47.952;21.714;2022-09-12T15:56:15;4.95;;;1.88;;
43070;SDS011;36278;47.952;21.714;2022-09-12T15:58:42;3.45;;;1.73;;
43070;SDS011;36278;47.952;21.714;2022-09-12T16:01:17;2.67;;;1.67;;
43070;SDS011;36278;47.952;21.714;2022-09-12T16:03:44;7.07;;;2.00;;
43070;SDS011;36278;47.952;21.714;2022-09-12T16:06:10;3.67;;;1.98;;
43070;SDS011;36278;47.952;21.714;2022-09-12T16:08:36;2.75;;;1.92;;
43070;SDS011;36278;47.952;21.714;2022-09-12T16:11:04;5.90;;;1.83;;
43070;SDS011;36278;47.952;21.714;2022-09-12T16:13:32;4.07;;;1.95;;
43070;SDS011;36278;47.952;21.714;2022-09-12T16:15:58;3.75;;;2.20;;
43070;SDS011;36278;47.952;21.714;2022-09-12T16:18:24;2.25;;;2.03;;
43070;SDS011;36278;47.952;21.714;2022-09-12T16:20:51;2.80;;;1.90;;
43070;SDS011;36278;47.952;21.714;2022-09-12T16:23:17;4.30;;;1.70;;
43070;SDS011;36278;47.952;21.714;2022-09-12T16:25:42;3.85;;;1.80;;
43070;SDS011;36278;47.952;21.714;2022-09-12T16:28:08;5.57;;;2.35;;
43070;SDS011;36278;47.952;21.714;2022-09-12T16:30:33;3.87;;;1.80;;
43070;SDS011;36278;47.952;21.714;2022-09-12T16:32:59;3.33;;;1.95;;
43070;SDS011;36278;47.952;21.714;2022-09-12T16:35:25;3.77;;;2.30;;
43070;SDS011;36278;47.952;21.714;2022-09-12T16:37:51;4.50;;;2.63;;
43070;SDS011;36278;47.952;21.714;2022-09-12T16:40:16;4.90;;;2.30;;
43070;SDS011;36278;47.952;21.714;2022-09-12T16:42:43;6.30;;;2.07;;
43070;SDS011;36278;47.952;21.714;2022-09-12T16:45:12;9.10;;;1.87;;
43070;SDS011;36278;47.952;21.714;2022-09-12T16:47:37;8.67;;;2.50;;
43070;SDS011;36278;47.952;21.714;2022-09-12T16:50:03;4.57;;;2.40;;
43070;SDS011;36278;47.952;21.714;2022-09-12T16:52:30;3.87;;;2.60;;
43070;SDS011;36278;47.952;21.714;2022-09-12T16:54:57;3.60;;;2.00;;
43070;SDS011;36278;47.952;21.714;2022-09-12T16:57:22;7.53;;;2.17;;
43070;SDS011;36278;47.952;21.714;2022-09-12T16:59:48;4.10;;;1.63;;
43070;SDS011;36278;47.952;21.714;2022-09-12T17:02:13;3.20;;;2.10;;
43070;SDS011;36278;47.952;21.714;2022-09-12T17:04:40;1.93;;;1.50;;
43070;SDS011;36278;47.952;21.714;2022-09-12T17:07:06;4.27;;;2.00;;
43070;SDS011;36278;47.952;21.714;2022-09-12T17:09:32;5.80;;;1.90;;
43070;SDS011;36278;47.952;21.714;2022-09-12T17:11:59;4.80;;;2.20;;
43070;SDS011;36278;47.952;21.714;2022-09-12T17:14:24;5.00;;;2.20;;
43070;SDS011;36278;47.952;21.714;2022-09-12T17:16:50;3.10;;;1.90;;
43070;SDS011;36278;47.952;21.714;2022-09-12T17:19:20;5.07;;;2.00;;
43070;SDS011;36278;47.952;21.714;2022-09-12T17:21:50;3.07;;;1.80;;
43070;SDS011;36278;47.952;21.714;2022-09-12T17:24:16;5.30;;;1.93;;
43070;SDS011;36278;47.952;21.714;2022-09-12T17:26:41;4.37;;;2.03;;
43070;SDS011;36278;47.952;21.714;2022-09-12T17:29:07;4.77;;;2.17;;
43070;SDS011;36278;47.952;21.714;2022-09-12T17:31:34;5.83;;;2.20;;
43070;SDS011;36278;47.952;21.714;2022-09-12T17:34:00;3.93;;;2.00;;
43070;SDS011;36278;47.952;21.714;2022-09-12T17:36:26;5.83;;;2.17;;
43070;SDS011;36278;47.952;21.714;2022-09-12T17:38:52;5.20;;;2.17;;
43070;SDS011;36278;47.952;21.714;2022-09-12T17:41:22;3.47;;;2.20;;